Lyman, Idaho
Current Conditions -  °F | °C
As of 9:53 PM on Sunday 21 Dec 2014 (Local Time) from KRXE Reporting Station
Clear Clear  
Wind Chill: 25°   Ceiling: Unl
Heat Index: 31°   Visibility: 10mi
Dew Point: 26°   Wind: 6mph
Humidity: 82%   Direction: 170°S
Pressure: 29.9"   Gusts: NA
Location:  43.7568°N, 111.624°W
Report Text: KRXE 220453Z AUTO 17005KT 10SM CLR M01/M03 A2990 RMK AO2 SLP139 T10061033
Loading
Personal Weather Stations






























Interactive Weather Map New forecast layout! Learn more

10-Day Weather Forecast

Advertisements
Track Severe Weather on mobile